createdAt,value
2022-07-31T00:01:09.613Z,99160.88
2022-07-31T00:03:38.565Z,99152.09
2022-07-31T00:06:07.844Z,99163.63
2022-07-31T00:08:37.806Z,99158.84
2022-07-31T00:11:06.450Z,99160.91
2022-07-31T00:13:57.271Z,99150.16
2022-07-31T00:16:24.491Z,99157.81
2022-07-31T00:18:53.358Z,99158.66
2022-07-31T00:21:22.880Z,99158.16
2022-07-31T00:23:52.128Z,99160.53
2022-07-31T00:26:20.752Z,99166.34
2022-07-31T00:28:49.539Z,99166.66
2022-07-31T00:31:18.652Z,99162.91
2022-07-31T00:33:47.358Z,99167.38
2022-07-31T00:36:15.975Z,99157.81
2022-07-31T00:38:44.652Z,99169.75
2022-07-31T00:41:13.480Z,99160.97
2022-07-31T00:43:42.054Z,99160.88
2022-07-31T00:46:14.567Z,99165.22
2022-07-31T00:48:43.311Z,99170.03
2022-07-31T00:51:12.624Z,99168.84
2022-07-31T00:53:42.055Z,99165.56
2022-07-31T00:56:11.154Z,99173.88
2022-07-31T00:58:39.820Z,99169.03
2022-07-31T01:01:08.631Z,99172.72
2022-07-31T01:03:37.379Z,99162.06
2022-07-31T01:06:06.693Z,99159.78
2022-07-31T01:08:36.090Z,99158.72
2022-07-31T01:11:23.818Z,99158.66
2022-07-31T01:14:11.711Z,99168.56
2022-07-31T01:16:47.739Z,99168.38
2022-07-31T01:19:42.169Z,99162.44
2022-07-31T01:22:54.346Z,99159.34
2022-07-31T01:25:53.429Z,99159.13
2022-07-31T01:29:16.836Z,99160.31
2022-07-31T01:32:13.835Z,99163.56
2022-07-31T01:35:30.858Z,99165.97
2022-07-31T01:38:37.132Z,99168.28
2022-07-31T01:41:12.646Z,99166.16
2022-07-31T01:43:46.898Z,99167.16
2022-07-31T01:46:20.945Z,99163.41
2022-07-31T01:48:50.752Z,99159.84
2022-07-31T01:51:20.180Z,99167.16
2022-07-31T01:53:52.187Z,99160.97
2022-07-31T01:56:22.568Z,99158.09
2022-07-31T01:58:52.423Z,99161.22
2022-07-31T02:01:26.731Z,99165.34
2022-07-31T02:04:00.575Z,99167.56
2022-07-31T02:06:31.062Z,99162.81
2022-07-31T02:09:01.876Z,99159.91
2022-07-31T02:11:30.931Z,99157.47
2022-07-31T02:14:02.540Z,99159.16
2022-07-31T02:16:32.378Z,99157.84
2022-07-31T02:19:01.819Z,99158.50
2022-07-31T02:21:30.407Z,99163.44
2022-07-31T02:23:59.043Z,99155.00
2022-07-31T02:26:31.736Z,99163.38
2022-07-31T02:29:02.234Z,99152.34
2022-07-31T02:31:33.880Z,99153.50
2022-07-31T02:34:01.760Z,99154.03
2022-07-31T02:36:34.506Z,99155.13
2022-07-31T02:39:04.512Z,99148.56
2022-07-31T02:41:33.157Z,99143.84
2022-07-31T02:44:01.670Z,99136.53
2022-07-31T02:46:31.637Z,99139.13
2022-07-31T02:49:00.999Z,99131.47
2022-07-31T02:51:42.495Z,99134.03
2022-07-31T02:54:13.206Z,99130.97
2022-07-31T02:56:42.170Z,99132.78
2022-07-31T02:59:12.487Z,99142.69
2022-07-31T03:01:41.099Z,99149.34
2022-07-31T03:04:08.986Z,99137.59
2022-07-31T03:06:38.434Z,99137.22
2022-07-31T03:09:08.171Z,99142.38
2022-07-31T03:11:37.277Z,99136.91
2022-07-31T03:14:08.345Z,99142.03
2022-07-31T03:16:37.388Z,99138.63
2022-07-31T03:19:08.544Z,99144.59
2022-07-31T03:21:37.004Z,99143.78
2022-07-31T03:24:06.505Z,99138.66
2022-07-31T03:26:35.574Z,99143.44
2022-07-31T03:29:05.216Z,99136.25
2022-07-31T03:31:54.652Z,99130.31
2022-07-31T03:34:24.140Z,99140.03
2022-07-31T03:36:52.835Z,99140.69
2022-07-31T03:39:20.538Z,99137.59
2022-07-31T03:41:49.189Z,99140.31
2022-07-31T03:44:20.399Z,99148.19
2022-07-31T03:46:49.983Z,99140.47
2022-07-31T03:49:20.050Z,99136.38
2022-07-31T03:51:49.585Z,99137.22
2022-07-31T03:54:19.283Z,99130.47
2022-07-31T03:56:51.853Z,99127.75
2022-07-31T03:59:22.340Z,99134.19
2022-07-31T04:01:57.977Z,99123.25
2022-07-31T04:04:28.609Z,99129.44
2022-07-31T04:06:58.065Z,99128.88
2022-07-31T04:09:27.581Z,99138.22
2022-07-31T04:11:57.082Z,99134.19
2022-07-31T04:14:26.676Z,99151.94
2022-07-31T04:16:56.145Z,99146.28
2022-07-31T04:19:25.646Z,99144.72
2022-07-31T04:21:55.466Z,99152.63
2022-07-31T04:24:23.241Z,99143.88
2022-07-31T04:26:58.676Z,99153.63
2022-07-31T04:29:29.708Z,99148.19
2022-07-31T04:31:59.265Z,99141.00
2022-07-31T04:34:27.189Z,99145.63
2022-07-31T04:36:54.955Z,99154.94
2022-07-31T04:39:22.663Z,99146.91
2022-07-31T04:41:51.892Z,99140.38
2022-07-31T04:44:21.413Z,99142.13
2022-07-31T04:46:51.254Z,99146.91
2022-07-31T04:49:19.155Z,99144.88
2022-07-31T04:51:50.414Z,99133.69
2022-07-31T04:54:20.004Z,99138.91
2022-07-31T04:56:49.745Z,99134.97
2022-07-31T04:59:21.987Z,99143.84
2022-07-31T05:01:51.601Z,99143.06
2022-07-31T05:04:21.219Z,99136.00
2022-07-31T05:06:53.241Z,99145.03
2022-07-31T05:09:25.459Z,99147.53
2022-07-31T05:11:55.175Z,99144.81
2022-07-31T05:14:23.733Z,99152.38
2022-07-31T05:16:53.411Z,99146.47
2022-07-31T05:19:21.963Z,99153.97
2022-07-31T05:22:03.604Z,99155.34
2022-07-31T05:24:34.427Z,99144.72
2022-07-31T05:27:04.652Z,99148.63
2022-07-31T05:29:34.456Z,99149.31
2022-07-31T05:32:03.458Z,99151.84
2022-07-31T05:34:32.099Z,99150.53
2022-07-31T05:37:02.475Z,99144.63
2022-07-31T05:39:31.361Z,99150.16
2022-07-31T05:41:59.871Z,99146.34
2022-07-31T05:44:29.350Z,99147.19
2022-07-31T05:49:29.064Z,99146.69
2022-07-31T05:51:58.635Z,99148.09
2022-07-31T05:54:28.406Z,99152.41
2022-07-31T05:56:58.130Z,99150.97
2022-07-31T05:59:25.869Z,99156.06
2022-07-31T06:01:59.828Z,99162.50
2022-07-31T06:04:29.384Z,99163.38
2022-07-31T06:06:58.921Z,99167.09
2022-07-31T06:09:28.393Z,99161.13
2022-07-31T06:11:57.922Z,99150.72
2022-07-31T06:14:27.404Z,99151.75
2022-07-31T06:16:56.918Z,99153.50
2022-07-31T06:19:26.472Z,99160.50
2022-07-31T06:21:56.053Z,99164.00
2022-07-31T06:24:23.798Z,99152.44
2022-07-31T06:27:01.796Z,99159.50
2022-07-31T06:29:41.915Z,99158.66
2022-07-31T06:32:10.844Z,99148.09
2022-07-31T06:34:41.594Z,99149.34
2022-07-31T06:37:09.713Z,99149.34
2022-07-31T06:39:54.426Z,99145.38
2022-07-31T06:42:26.548Z,99143.66
2022-07-31T06:44:55.275Z,99153.75
2022-07-31T06:47:26.376Z,99156.47
2022-07-31T06:49:55.982Z,99149.94
2022-07-31T06:52:23.823Z,99152.63
2022-07-31T06:54:52.014Z,99157.53
2022-07-31T06:57:20.520Z,99157.75
2022-07-31T06:59:49.060Z,99151.91
2022-07-31T07:02:17.760Z,99154.66
2022-07-31T07:05:06.116Z,99152.03
2022-07-31T07:07:36.813Z,99150.38
2022-07-31T07:10:06.750Z,99155.84
2022-07-31T07:12:35.284Z,99151.44
2022-07-31T07:15:04.332Z,99149.88
2022-07-31T07:17:32.063Z,99147.19
2022-07-31T07:20:01.630Z,99146.75
2022-07-31T07:22:30.101Z,99149.09
2022-07-31T07:25:01.429Z,99143.47
2022-07-31T07:27:31.043Z,99147.16
2022-07-31T07:29:59.977Z,99142.69
2022-07-31T07:32:28.479Z,99145.41
2022-07-31T07:34:59.984Z,99152.56
2022-07-31T07:37:30.327Z,99150.22
2022-07-31T07:40:04.033Z,99141.19
2022-07-31T07:42:32.775Z,99142.44
2022-07-31T07:45:02.226Z,99144.03
2022-07-31T07:47:53.701Z,99144.09
2022-07-31T07:50:27.096Z,99144.66
2022-07-31T07:52:58.000Z,99139.94
2022-07-31T07:55:26.737Z,99139.47
2022-07-31T07:57:55.397Z,99147.91
2022-07-31T08:00:25.999Z,99145.22
2022-07-31T08:03:46.803Z,99139.59
2022-07-31T08:05:42.665Z,99156.03
2022-07-31T08:08:12.379Z,99147.78
2022-07-31T08:10:41.421Z,99157.84
2022-07-31T08:13:12.605Z,99155.22
2022-07-31T08:15:40.458Z,99150.97
2022-07-31T08:18:08.331Z,99145.81
2022-07-31T08:20:38.765Z,99158.13
2022-07-31T08:23:06.853Z,99153.97
2022-07-31T08:25:35.338Z,99158.63
2022-07-31T08:28:05.595Z,99159.72
2022-07-31T08:30:35.858Z,99160.88
2022-07-31T08:33:05.323Z,99165.84
2022-07-31T08:35:34.818Z,99162.53
2022-07-31T08:38:04.750Z,99155.41
2022-07-31T08:40:42.959Z,99162.19
2022-07-31T08:44:00.618Z,99162.47
2022-07-31T08:46:04.837Z,99168.22
2022-07-31T08:48:40.486Z,99181.16
2022-07-31T08:51:13.884Z,99168.53
2022-07-31T08:53:44.935Z,99157.84
2022-07-31T08:56:14.559Z,99178.31
2022-07-31T08:58:44.858Z,99167.22
2022-07-31T09:01:16.094Z,99170.13
2022-07-31T09:03:46.028Z,99184.41
2022-07-31T09:06:15.547Z,99175.38
2022-07-31T09:08:45.045Z,99174.00
2022-07-31T09:11:16.906Z,99180.06
2022-07-31T09:14:02.633Z,99180.47
2022-07-31T09:16:43.923Z,99175.22
2022-07-31T09:19:53.147Z,99174.47
2022-07-31T09:22:05.224Z,99178.66
2022-07-31T09:24:39.832Z,99189.03
2022-07-31T09:27:10.704Z,99190.41
2022-07-31T09:29:44.393Z,99189.09
2022-07-31T09:32:20.781Z,99192.25
2022-07-31T09:34:50.329Z,99186.94
2022-07-31T09:37:27.432Z,99184.25
2022-07-31T09:39:57.453Z,99190.56
2022-07-31T09:42:48.372Z,99188.13
2022-07-31T09:45:25.832Z,99183.75
2022-07-31T09:48:14.438Z,99186.88
2022-07-31T09:51:04.598Z,99176.13
2022-07-31T09:53:46.346Z,99185.06
2022-07-31T09:56:16.232Z,99186.75
2022-07-31T09:58:44.680Z,99190.31
2022-07-31T10:01:14.469Z,99199.66
2022-07-31T10:03:46.535Z,99182.75
2022-07-31T10:06:16.635Z,99173.63
2022-07-31T10:08:50.574Z,99198.84
2022-07-31T10:11:23.564Z,99191.34
2022-07-31T10:14:00.456Z,99187.16
2022-07-31T10:16:36.697Z,99192.25
2022-07-31T10:19:11.491Z,99192.13
2022-07-31T10:21:49.893Z,99197.22
2022-07-31T10:24:26.069Z,99192.13
2022-07-31T10:27:07.848Z,99193.16
2022-07-31T10:29:41.084Z,99188.47
2022-07-31T10:32:10.271Z,99192.97
2022-07-31T10:34:39.122Z,99191.13
2022-07-31T10:37:25.979Z,99189.91
2022-07-31T10:40:43.086Z,99184.88
2022-07-31T10:43:57.561Z,99197.19
2022-07-31T10:46:34.085Z,99186.38
2022-07-31T10:49:08.545Z,99186.38
2022-07-31T10:51:51.318Z,99188.31
2022-07-31T10:54:19.661Z,99206.03
2022-07-31T10:56:48.395Z,99206.03
2022-07-31T10:59:16.834Z,99206.06
2022-07-31T11:01:55.315Z,99212.22
2022-07-31T11:04:32.877Z,99217.53
2022-07-31T11:09:32.665Z,99226.53
2022-07-31T11:12:21.763Z,99225.88
2022-07-31T11:14:53.006Z,99223.66
2022-07-31T11:18:20.838Z,99236.56
2022-07-31T11:20:31.264Z,99230.22
2022-07-31T11:23:05.035Z,62182.44
2022-07-31T11:25:37.788Z,99230.22
2022-07-31T11:28:24.730Z,99224.47
2022-07-31T11:31:07.177Z,99215.28
2022-07-31T11:33:42.809Z,62182.44
2022-07-31T11:36:24.733Z,99227.53
2022-07-31T11:38:56.894Z,99197.56
2022-07-31T11:41:44.027Z,99225.94
2022-07-31T11:44:13.389Z,99213.59
2022-07-31T11:46:44.519Z,62182.44
2022-07-31T11:49:44.125Z,62182.44
2022-07-31T11:52:31.302Z,99213.59
2022-07-31T11:55:09.819Z,62182.44
2022-07-31T11:57:52.164Z,99231.69
2022-07-31T12:00:29.073Z,99231.50
2022-07-31T12:02:59.034Z,62182.44
2022-07-31T12:05:38.180Z,62182.44
2022-07-31T12:08:08.346Z,99229.28
2022-07-31T12:10:39.960Z,99226.84
2022-07-31T12:13:18.423Z,62182.44
2022-07-31T12:16:11.230Z,62182.44
2022-07-31T12:18:52.447Z,62182.44
2022-07-31T12:21:38.535Z,62182.44
2022-07-31T12:24:15.104Z,62182.44
2022-07-31T12:26:59.298Z,62182.44
2022-07-31T12:29:46.980Z,62182.44
2022-07-31T12:32:26.621Z,62182.44
2022-07-31T12:35:05.203Z,62182.44
2022-07-31T12:37:51.266Z,99226.84
2022-07-31T12:40:27.976Z,99269.91
2022-07-31T12:42:59.636Z,99258.91
2022-07-31T12:45:39.987Z,62182.44
2022-07-31T12:48:09.460Z,99258.91
2022-07-31T12:50:39.092Z,99261.75
2022-07-31T12:53:07.505Z,99268.38
2022-07-31T12:55:37.566Z,99264.38
2022-07-31T12:58:07.105Z,99258.81
2022-07-31T13:00:39.802Z,99253.28
2022-07-31T13:03:10.424Z,99234.41
2022-07-31T13:05:38.855Z,99241.97
2022-07-31T13:08:08.842Z,99226.34
2022-07-31T13:10:37.335Z,99234.25
2022-07-31T13:13:08.046Z,99241.25
2022-07-31T13:15:36.519Z,99232.69
2022-07-31T13:18:06.361Z,99242.16
2022-07-31T13:20:35.889Z,99252.00
2022-07-31T13:25:33.983Z,99236.16
2022-07-31T13:28:03.632Z,99238.56
2022-07-31T13:30:33.118Z,99242.13
2022-07-31T13:33:01.582Z,99242.94
2022-07-31T13:35:32.780Z,99244.47
2022-07-31T13:38:01.163Z,99240.72
2022-07-31T13:40:47.829Z,99249.97
2022-07-31T13:43:16.350Z,99245.53
2022-07-31T13:45:46.358Z,99260.38
2022-07-31T13:48:14.759Z,99266.59
2022-07-31T13:50:43.534Z,99255.88
2022-07-31T13:53:11.993Z,62182.44
2022-07-31T13:55:41.502Z,62182.44
2022-07-31T13:58:09.913Z,62182.44
2022-07-31T14:00:38.342Z,62182.44
2022-07-31T14:03:07.472Z,62182.44
2022-07-31T14:05:40.300Z,62182.44
2022-07-31T14:08:33.495Z,99255.88
2022-07-31T14:10:59.065Z,62182.44
2022-07-31T14:13:27.118Z,62182.44
2022-07-31T14:15:56.494Z,62182.44
2022-07-31T14:18:25.405Z,99276.91
2022-07-31T14:20:53.233Z,99273.50
2022-07-31T14:23:34.130Z,62182.44
2022-07-31T14:26:05.235Z,62182.44
2022-07-31T14:28:33.137Z,62182.44
2022-07-31T14:31:00.935Z,62182.44
2022-07-31T14:33:29.413Z,62182.44
2022-07-31T14:35:59.042Z,62182.44
2022-07-31T14:38:27.898Z,62182.44
2022-07-31T14:40:56.490Z,62182.44
2022-07-31T14:43:24.455Z,62182.44
2022-07-31T14:45:52.889Z,62182.44
2022-07-31T14:48:22.078Z,62182.44
2022-07-31T14:50:51.728Z,99298.25
2022-07-31T14:53:21.290Z,99298.63
2022-07-31T14:55:48.975Z,99296.16
2022-07-31T14:58:16.890Z,99290.25
2022-07-31T15:00:44.836Z,99295.97
2022-07-31T15:03:14.453Z,99303.28
2022-07-31T15:06:39.767Z,99297.84
2022-07-31T15:08:33.543Z,99295.53
2022-07-31T15:11:01.223Z,99304.84
2022-07-31T15:13:29.621Z,99311.47
2022-07-31T15:15:57.464Z,99306.06
2022-07-31T15:18:26.245Z,99308.88
2022-07-31T15:20:54.479Z,99304.63
2022-07-31T15:23:24.005Z,99302.97
2022-07-31T15:25:53.583Z,99307.63
2022-07-31T15:28:21.337Z,99303.69
2022-07-31T15:30:49.068Z,99304.53
2022-07-31T15:33:16.888Z,99302.59
2022-07-31T15:35:44.610Z,99302.91
2022-07-31T15:38:12.393Z,99287.69
2022-07-31T15:40:40.216Z,99285.50
2022-07-31T15:43:08.781Z,99275.56
2022-07-31T15:45:37.179Z,99292.25
2022-07-31T15:48:10.095Z,99285.78
2022-07-31T15:50:38.977Z,99288.88
2022-07-31T15:53:08.531Z,99288.88
2022-07-31T15:55:37.000Z,99276.09
2022-07-31T15:58:05.417Z,99267.59
2022-07-31T16:00:33.919Z,99273.94
2022-07-31T16:03:02.059Z,99268.97
2022-07-31T16:05:35.978Z,99265.28
2022-07-31T16:08:29.873Z,99270.53
2022-07-31T16:10:58.209Z,99275.13
2022-07-31T16:13:27.241Z,99278.22
2022-07-31T16:15:55.694Z,99278.00
2022-07-31T16:18:24.105Z,99281.06
2022-07-31T16:20:53.139Z,99293.50
2022-07-31T16:23:21.674Z,99287.72
2022-07-31T16:25:50.098Z,99293.38
2022-07-31T16:28:19.685Z,99283.69
2022-07-31T16:30:48.179Z,99289.69
2022-07-31T16:33:17.669Z,99286.81
2022-07-31T16:35:46.301Z,99275.56
2022-07-31T16:38:15.831Z,99276.94
2022-07-31T16:40:44.459Z,99274.50
2022-07-31T16:43:48.617Z,99280.31
2022-07-31T16:46:01.424Z,99278.22
2022-07-31T16:48:31.136Z,99278.22
2022-07-31T16:51:01.410Z,99281.22
2022-07-31T16:54:09.894Z,99281.22
2022-07-31T16:56:19.793Z,99281.97
2022-07-31T16:58:51.387Z,99280.59
2022-07-31T17:01:57.259Z,99280.56
2022-07-31T17:04:11.238Z,99284.66
2022-07-31T17:06:39.972Z,99282.59
2022-07-31T17:09:16.102Z,99277.97
2022-07-31T17:11:56.542Z,99277.97
2022-07-31T17:14:28.282Z,99282.28
2022-07-31T17:16:57.185Z,99286.41
2022-07-31T17:19:42.363Z,99271.41
2022-07-31T17:22:19.954Z,99284.03
2022-07-31T17:24:51.959Z,99283.13
2022-07-31T17:27:22.729Z,99279.91
2022-07-31T17:29:52.282Z,99275.66
2022-07-31T17:32:21.056Z,99287.06
2022-07-31T17:34:50.743Z,99286.69
2022-07-31T17:37:20.473Z,99291.16
2022-07-31T17:39:49.034Z,99291.47
2022-07-31T17:42:18.206Z,99284.59
2022-07-31T17:44:55.840Z,99284.25
2022-07-31T17:47:26.174Z,99285.34
2022-07-31T17:49:54.962Z,99289.75
2022-07-31T17:52:25.375Z,99280.91
2022-07-31T17:54:55.838Z,99282.59
2022-07-31T17:57:29.443Z,99289.22
2022-07-31T17:59:58.499Z,99293.00
2022-07-31T18:02:27.771Z,99281.56
2022-07-31T18:04:57.397Z,99279.31
2022-07-31T18:07:26.388Z,99291.09
2022-07-31T18:09:57.278Z,99300.44
2022-07-31T18:12:26.845Z,99292.44
2022-07-31T18:14:55.221Z,99302.28
2022-07-31T18:17:23.670Z,99304.84
2022-07-31T18:19:52.085Z,99309.81
2022-07-31T18:22:20.573Z,99314.22
2022-07-31T18:24:48.956Z,99311.28
2022-07-31T18:27:17.657Z,99320.53
2022-07-31T18:29:54.281Z,99318.84
2022-07-31T18:32:25.071Z,99321.19
2022-07-31T18:34:53.618Z,99322.38
2022-07-31T18:37:23.156Z,99314.53
2022-07-31T18:39:51.920Z,99316.59
2022-07-31T18:42:21.640Z,99323.94
2022-07-31T18:44:51.210Z,99314.22
2022-07-31T18:47:19.735Z,99324.44
2022-07-31T18:50:59.786Z,99321.06
2022-07-31T18:52:36.648Z,99317.63
2022-07-31T18:55:05.896Z,99317.28
2022-07-31T18:57:35.475Z,99325.13
2022-07-31T19:00:10.257Z,99330.94
2022-07-31T19:02:38.808Z,99330.22
2022-07-31T19:05:08.035Z,99334.97
2022-07-31T19:07:41.708Z,99338.41
2022-07-31T19:10:10.190Z,99329.81
2022-07-31T19:12:57.531Z,99345.13
2022-07-31T19:15:26.161Z,99346.41
2022-07-31T19:17:57.721Z,99338.75
2022-07-31T19:20:40.506Z,99352.84
2022-07-31T19:23:16.393Z,99364.97
2022-07-31T19:26:02.054Z,99362.22
2022-07-31T19:28:36.254Z,99375.47
2022-07-31T19:31:24.197Z,99371.06
2022-07-31T19:33:52.670Z,99365.06
2022-07-31T19:36:21.082Z,99375.13
2022-07-31T19:38:48.828Z,99363.94
2022-07-31T19:41:16.649Z,99367.03
2022-07-31T19:43:45.080Z,99364.44
2022-07-31T19:46:13.705Z,99357.97
2022-07-31T19:48:46.836Z,99360.41
2022-07-31T19:51:16.391Z,99369.75
2022-07-31T19:53:46.235Z,99356.44
2022-07-31T19:56:20.196Z,99361.56
2022-07-31T19:58:50.656Z,99357.00
2022-07-31T20:01:20.468Z,99356.50
2022-07-31T20:03:51.216Z,99346.06
2022-07-31T20:06:20.803Z,99342.31
2022-07-31T20:08:50.754Z,99354.41
2022-07-31T20:11:19.235Z,99348.31
2022-07-31T20:13:46.980Z,99351.28
2022-07-31T20:16:18.164Z,99349.91
2022-07-31T20:18:48.383Z,99354.97
2022-07-31T20:21:16.867Z,99355.34
2022-07-31T20:23:44.655Z,99357.03
2022-07-31T20:26:18.798Z,99351.75
2022-07-31T20:28:47.309Z,99357.47
2022-07-31T20:31:18.472Z,99350.91
2022-07-31T20:33:57.831Z,99341.34
2022-07-31T20:36:28.282Z,99348.34
2022-07-31T20:38:58.887Z,99355.19
2022-07-31T20:41:27.995Z,99347.28
2022-07-31T20:43:56.562Z,99345.25
2022-07-31T20:46:25.245Z,99349.53
2022-07-31T20:48:56.479Z,99351.88
2022-07-31T20:51:25.004Z,99350.16
2022-07-31T20:53:54.966Z,99343.91
2022-07-31T20:56:23.565Z,99336.91
2022-07-31T20:58:52.287Z,99337.47
2022-07-31T21:01:24.016Z,99338.94
2022-07-31T21:03:53.028Z,99335.13
2022-07-31T21:06:21.673Z,99332.25
2022-07-31T21:08:50.285Z,99323.22
2022-07-31T21:11:20.297Z,99324.09
2022-07-31T21:13:48.133Z,99319.94
2022-07-31T21:16:16.381Z,99334.56
2022-07-31T21:18:44.063Z,99332.13
2022-07-31T21:21:12.532Z,99333.03
2022-07-31T21:23:40.886Z,99341.06
2022-07-31T21:26:10.177Z,99353.03
2022-07-31T21:28:39.646Z,99351.44
2022-07-31T21:31:10.041Z,99346.53
2022-07-31T21:33:39.115Z,99343.47
2022-07-31T21:36:08.769Z,99353.50
2022-07-31T21:38:40.275Z,99350.34
2022-07-31T21:41:09.557Z,99355.56
2022-07-31T21:43:58.784Z,99347.63
2022-07-31T21:46:30.288Z,99362.91
2022-07-31T21:48:59.744Z,99367.31
2022-07-31T21:51:28.658Z,99373.47
2022-07-31T21:53:58.293Z,99377.03
2022-07-31T21:56:28.579Z,99372.66
2022-07-31T21:58:57.059Z,99389.19
2022-07-31T22:01:25.530Z,99402.56
2022-07-31T22:03:54.108Z,99396.25
2022-07-31T22:06:40.743Z,99390.78
2022-07-31T22:09:09.776Z,99389.03
2022-07-31T22:11:38.253Z,99380.34
2022-07-31T22:14:06.765Z,99385.94
2022-07-31T22:16:34.501Z,99383.47
2022-07-31T22:19:03.557Z,99379.19
2022-07-31T22:21:32.527Z,99381.00
2022-07-31T22:24:00.802Z,99383.69
2022-07-31T22:26:31.104Z,99387.63
2022-07-31T22:29:00.596Z,99384.34
2022-07-31T22:31:28.685Z,99382.22
2022-07-31T22:33:58.336Z,99381.03
2022-07-31T22:36:27.645Z,99391.63
2022-07-31T22:38:58.242Z,99397.53
2022-07-31T22:41:26.747Z,99386.19
2022-07-31T22:44:14.160Z,99389.53
2022-07-31T22:46:43.026Z,99398.16
2022-07-31T22:49:13.334Z,99390.78
2022-07-31T22:51:46.165Z,99390.78
2022-07-31T22:54:14.399Z,99386.25
2022-07-31T22:56:42.101Z,99385.78
2022-07-31T22:59:09.808Z,99385.25
2022-07-31T23:01:37.501Z,99373.22
2022-07-31T23:04:07.042Z,99376.84
2022-07-31T23:06:36.638Z,99373.59
2022-07-31T23:09:04.451Z,99368.47
2022-07-31T23:11:34.006Z,99368.31
2022-07-31T23:14:03.512Z,99366.91
2022-07-31T23:16:35.010Z,99356.44
2022-07-31T23:19:03.252Z,99360.31
2022-07-31T23:21:30.927Z,99360.38
2022-07-31T23:23:58.633Z,99355.03
2022-07-31T23:26:27.565Z,99364.09
2022-07-31T23:28:56.699Z,99365.97
2022-07-31T23:31:24.978Z,99367.34
2022-07-31T23:33:55.056Z,99363.47
2022-07-31T23:36:23.133Z,99365.03
2022-07-31T23:38:52.672Z,99376.19
2022-07-31T23:41:41.210Z,99369.38
2022-07-31T23:44:10.476Z,99372.72
2022-07-31T23:46:40.624Z,99373.25
2022-07-31T23:49:10.289Z,99373.13
2022-07-31T23:51:39.816Z,99375.56
2022-07-31T23:54:09.502Z,99382.50
2022-07-31T23:56:37.198Z,99380.38
2022-07-31T23:59:06.759Z,99370.41
